Time;durP1;ratioP1;P1;durP2;ratioP2;P2;SDS_P1;SDS_P2;PMS_P1;PMS_P2;Temp;Humidity;BMP_temperature;BMP_pressure;BME280_temperature;BME280_humidity;BME280_pressure;Samples;Min_cycle;Max_cycle;Signal;HPM_P1;HPM_P2
2023/07/10 00:00:58;;;;;;;5.75;4.10;;;486.40;2380.80;;;;;;5089523;28;20024;-65
2023/07/10 00:03:28;;;;;;;5.35;4.20;;;486.40;2380.80;;;;;;5089785;28;20024;-65
2023/07/10 00:05:55;;;;;;;7.50;3.80;;;486.40;2380.80;;;;;;5076910;28;20028;-66
2023/07/10 00:08:20;;;;;;;6.78;4.38;;;486.40;2380.80;;;;;;5089714;28;20027;-65
2023/07/10 00:10:46;;;;;;;6.60;4.30;;;461.70;2380.80;;;;;;5089613;28;20119;-65
2023/07/10 00:13:13;;;;;;;7.57;4.30;;;461.70;2380.80;;;;;;5089725;28;20016;-65
2023/07/10 00:15:40;;;;;;;6.72;4.10;;;461.70;2380.80;;;;;;5089486;28;20024;-66
2023/07/10 00:18:24;;;;;;;5.57;4.05;;;461.70;2380.80;;;;;;5089000;28;20032;-66
2023/07/10 00:20:49;;;;;;;5.32;3.80;;;461.70;2380.80;;;;;;5089480;28;20028;-65
2023/07/10 00:23:16;;;;;;;6.43;4.28;;;461.70;2380.80;;;;;;5089258;28;20039;-65
2023/07/10 00:25:42;;;;;;;5.22;4.18;;;461.70;2380.80;;;;;;5089197;28;20485;-65
2023/07/10 00:28:17;;;;;;;6.75;4.13;;;461.70;2380.80;;;;;;5088789;28;20031;-65
2023/07/10 00:30:45;;;;;;;6.32;3.70;;;461.70;2380.80;;;;;;5076289;28;20016;-65
2023/07/10 00:33:11;;;;;;;5.70;3.95;;;461.70;2380.80;;;;;;5089654;28;20024;-66
2023/07/10 00:35:38;;;;;;;7.18;4.10;;;461.70;2380.80;;;;;;5089156;28;20027;-66
2023/07/10 00:38:20;;;;;;;5.20;3.78;;;461.70;2380.80;;;;;;5089147;28;20058;-64
2023/07/10 00:40:47;;;;;;;8.37;4.67;;;461.60;2380.80;;;;;;5089102;28;20020;-65
2023/07/10 00:43:34;;;;;;;4.80;3.83;;;461.50;2380.80;;;;;;5088725;28;20016;-65
2023/07/10 00:46:17;;;;;;;6.30;4.20;;;461.50;2380.80;;;;;;5088770;28;20202;-65
2023/07/10 00:48:50;;;;;;;8.05;4.68;;;461.50;2380.80;;;;;;5089324;28;20032;-64
2023/07/10 00:51:26;;;;;;;5.53;4.25;;;461.50;2380.80;;;;;;5089123;28;20032;-65
2023/07/10 00:53:54;;;;;;;4.88;3.85;;;461.50;2380.80;;;;;;5089324;28;20016;-65
2023/07/10 00:56:21;;;;;;;5.40;3.97;;;461.50;2380.80;;;;;;5088741;28;20051;-65
2023/07/10 00:58:49;;;;;;;6.30;4.22;;;461.40;2380.80;;;;;;5088833;28;20016;-65
2023/07/10 01:01:19;;;;;;;6.97;4.90;;;461.40;2380.80;;;;;;5088806;28;20028;-65
2023/07/10 01:03:46;;;;;;;7.00;4.45;;;461.40;2380.80;;;;;;5089134;28;20109;-66
2023/07/10 01:06:27;;;;;;;4.97;3.97;;;461.20;2380.80;;;;;;5089049;28;20044;-64
2023/07/10 01:09:03;;;;;;;6.53;4.35;;;461.40;2380.80;;;;;;5088956;28;20048;-64
2023/07/10 01:11:29;;;;;;;5.50;4.25;;;461.20;2380.80;;;;;;5088505;28;20024;-65
2023/07/10 01:13:57;;;;;;;5.82;4.55;;;461.40;2380.80;;;;;;5088879;28;20030;-65
2023/07/10 01:16:24;;;;;;;6.70;4.05;;;461.40;2380.80;;;;;;5088763;28;20016;-66
2023/07/10 01:18:51;;;;;;;6.82;4.03;;;461.30;2380.80;;;;;;5088971;28;20055;-66
2023/07/10 01:21:32;;;;;;;4.97;3.95;;;461.30;2380.80;;;;;;5087045;28;20036;-68
2023/07/10 01:24:04;;;;;;;8.05;4.63;;;461.30;2380.80;;;;;;5088433;28;20421;-66
2023/07/10 01:26:31;;;;;;;8.40;5.00;;;461.30;2380.80;;;;;;5088686;28;20020;-66
2023/07/10 01:28:59;;;;;;;5.28;4.55;;;461.30;2380.80;;;;;;5088856;28;20472;-67
2023/07/10 01:31:26;;;;;;;6.50;4.55;;;461.40;2380.80;;;;;;5088514;28;20078;-66
2023/07/10 01:33:58;;;;;;;6.28;4.35;;;461.40;2380.80;;;;;;5088739;28;20024;-65
2023/07/10 01:36:26;;;;;;;5.97;4.22;;;461.40;2380.80;;;;;;5088784;28;20103;-65
2023/07/10 01:39:15;;;;;;;8.05;3.83;;;461.40;2380.80;;;;;;5088847;28;20024;-64
2023/07/10 01:41:43;;;;;;;7.10;4.88;;;461.20;2380.80;;;;;;5029755;28;20396;-65
2023/07/10 01:44:28;;;;;;;5.50;3.92;;;461.20;2380.80;;;;;;5029632;28;20033;-65
2023/07/10 01:46:55;;;;;;;5.32;3.35;;;461.30;2380.80;;;;;;5029467;28;20076;-65
2023/07/10 01:49:26;;;;;;;5.55;4.10;;;461.40;2380.80;;;;;;5029671;28;20472;-67
2023/07/10 01:51:55;;;;;;;8.40;4.45;;;461.30;2380.80;;;;;;5029741;28;20041;-64
2023/07/10 01:54:21;;;;;;;5.35;4.28;;;461.30;2380.80;;;;;;5029797;28;20026;-64
2023/07/10 01:56:47;;;;;;;7.57;5.13;;;461.20;2380.80;;;;;;5029570;28;20495;-63
2023/07/10 01:59:13;;;;;;;5.93;4.15;;;461.20;2380.80;;;;;;5029667;28;20065;-64
2023/07/10 02:01:39;;;;;;;5.53;4.30;;;461.20;2380.80;;;;;;5029479;28;20064;-65
2023/07/10 02:04:05;;;;;;;6.80;4.53;;;461.20;2380.80;;;;;;5029139;28;20488;-64
2023/07/10 02:06:33;;;;;;;6.32;4.15;;;461.40;2380.80;;;;;;5029442;28;20089;-64
2023/07/10 02:08:59;;;;;;;8.00;4.28;;;461.30;2380.80;;;;;;5029498;28;20022;-65
2023/07/10 02:11:24;;;;;;;5.43;4.45;;;461.20;2380.80;;;;;;5029374;28;20039;-64
2023/07/10 02:13:50;;;;;;;5.97;4.63;;;461.30;2380.80;;;;;;5029202;28;20412;-63
2023/07/10 02:16:16;;;;;;;6.13;4.13;;;461.30;2380.80;;;;;;5029249;28;20037;-65
2023/07/10 02:18:42;;;;;;;11.52;4.72;;;461.30;2380.80;;;;;;5056736;28;20033;-64
2023/07/10 02:21:08;;;;;;;5.43;4.65;;;461.20;2380.80;;;;;;5091406;28;20043;-64
2023/07/10 02:23:37;;;;;;;6.82;4.85;;;461.20;2380.80;;;;;;5091458;28;20046;-64
2023/07/10 02:26:03;;;;;;;6.05;4.38;;;461.20;2380.80;;;;;;5091651;28;20036;-64
2023/07/10 02:28:29;;;;;;;8.80;4.95;;;461.20;2380.80;;;;;;5091150;28;20469;-64
2023/07/10 02:30:54;;;;;;;6.07;3.75;;;461.20;2380.80;;;;;;5091631;28;20039;-64
2023/07/10 02:33:21;;;;;;;7.05;4.88;;;461.20;2380.80;;;;;;5091409;28;20024;-64
2023/07/10 02:35:47;;;;;;;7.65;4.72;;;461.20;2380.80;;;;;;5091129;28;20463;-65
2023/07/10 02:38:13;;;;;;;9.10;4.20;;;461.20;2380.80;;;;;;5091804;28;20115;-64
2023/07/10 02:40:41;;;;;;;7.32;4.43;;;461.20;2380.80;;;;;;5091070;28;20031;-65
2023/07/10 02:43:07;;;;;;;6.57;4.30;;;461.20;2380.80;;;;;;5090981;28;20020;-64
2023/07/10 02:45:34;;;;;;;7.50;4.97;;;461.20;2380.80;;;;;;5091171;28;20036;-64
2023/07/10 02:48:00;;;;;;;6.18;4.75;;;461.20;2380.80;;;;;;5077776;28;20040;-64
2023/07/10 02:50:26;;;;;;;5.95;4.85;;;461.20;2380.80;;;;;;5090380;28;20470;-65
2023/07/10 02:52:51;;;;;;;6.47;4.80;;;461.20;2380.80;;;;;;5091056;28;20019;-65
2023/07/10 02:55:17;;;;;;;7.05;4.32;;;461.20;2380.80;;;;;;5090812;28;20024;-65
2023/07/10 02:57:43;;;;;;;6.28;4.63;;;461.20;2380.80;;;;;;5091140;28;20070;-66
2023/07/10 03:00:09;;;;;;;5.22;4.07;;;461.20;2380.80;;;;;;5090636;28;20028;-65
2023/07/10 03:02:35;;;;;;;7.05;4.70;;;461.10;2380.80;;;;;;5090532;28;20576;-66
2023/07/10 03:05:01;;;;;;;7.38;4.35;;;461.10;2380.80;;;;;;5090515;28;20115;-65
2023/07/10 03:07:27;;;;;;;9.20;4.82;;;461.10;2380.80;;;;;;5090601;28;20427;-65
2023/07/10 03:09:53;;;;;;;11.30;4.90;;;461.10;2380.80;;;;;;5090666;28;20031;-64
2023/07/10 03:12:21;;;;;;;6.22;4.50;;;461.10;2380.80;;;;;;5090566;28;20020;-68
2023/07/10 03:14:48;;;;;;;7.90;4.95;;;461.10;2380.80;;;;;;5090590;28;20024;-66
2023/07/10 03:17:13;;;;;;;5.93;4.05;;;461.10;2380.80;;;;;;5090745;28;20111;-65
2023/07/10 03:19:39;;;;;;;6.88;4.90;;;461.10;2380.80;;;;;;5090087;28;20115;-65
2023/07/10 03:22:05;;;;;;;8.65;4.47;;;461.10;2380.80;;;;;;5090258;28;20020;-65
2023/07/10 03:24:31;;;;;;;10.40;4.50;;;461.10;2380.80;;;;;;5090274;28;20020;-65
2023/07/10 03:26:57;;;;;;;6.10;4.30;;;461.20;2380.80;;;;;;5090267;28;20024;-65
2023/07/10 03:29:24;;;;;;;7.93;4.57;;;461.30;2380.80;;;;;;5090357;28;20464;-65
2023/07/10 03:31:50;;;;;;;9.02;4.38;;;461.40;2380.80;;;;;;5090345;28;20019;-65
2023/07/10 03:34:16;;;;;;;6.63;4.50;;;461.40;2380.80;;;;;;5090069;28;20024;-65
2023/07/10 03:36:42;;;;;;;8.10;4.82;;;461.40;2380.80;;;;;;5089863;28;20517;-67
2023/07/10 03:39:09;;;;;;;6.53;4.47;;;461.50;2380.80;;;;;;5090312;28;20140;-65
2023/07/10 03:41:35;;;;;;;6.22;4.50;;;461.60;2380.80;;;;;;5090439;28;20016;-66
2023/07/10 03:44:01;;;;;;;5.80;4.45;;;461.70;2380.80;;;;;;5089951;28;20024;-66
2023/07/10 03:46:27;;;;;;;6.15;4.35;;;486.40;2380.80;;;;;;5089862;28;20059;-64
2023/07/10 03:48:53;;;;;;;5.25;4.32;;;486.40;2380.80;;;;;;5089950;28;20024;-63
2023/07/10 03:51:19;;;;;;;9.95;4.57;;;486.50;2380.80;;;;;;5089712;28;20030;-65
2023/07/10 03:53:46;;;;;;;8.10;4.57;;;486.50;2380.80;;;;;;5090042;28;20102;-67
2023/07/10 03:56:12;;;;;;;6.93;4.47;;;486.40;2380.80;;;;;;5090210;28;20019;-66
2023/07/10 03:58:40;;;;;;;6.13;4.03;;;486.50;2380.80;;;;;;5089659;28;20202;-67
2023/07/10 04:01:06;;;;;;;5.20;4.30;;;486.50;2380.80;;;;;;5089056;28;20016;-68
2023/07/10 04:03:33;;;;;;;5.82;4.72;;;486.60;2380.80;;;;;;5088949;28;20123;-67
2023/07/10 04:05:59;;;;;;;5.90;4.22;;;486.70;2380.80;;;;;;5089294;28;20119;-66
2023/07/10 04:08:28;;;;;;;6.20;4.38;;;486.70;2380.80;;;;;;5089578;28;20024;-68
2023/07/10 04:10:56;;;;;;;5.47;3.97;;;486.80;2380.80;;;;;;5089773;28;20023;-67
2023/07/10 04:13:23;;;;;;;5.97;4.32;;;487.00;2380.80;;;;;;5089536;28;20033;-66
2023/07/10 04:15:58;;;;;;;6.88;4.40;;;486.90;2380.80;;;;;;5089514;28;20398;-68
2023/07/10 04:18:26;;;;;;;6.43;5.18;;;487.00;2380.80;;;;;;5089525;28;20036;-68
2023/07/10 04:20:52;;;;;;;6.82;4.43;;;487.10;2380.80;;;;;;5079020;28;20355;-67
2023/07/10 04:23:18;;;;;;;6.88;4.53;;;487.10;2380.80;;;;;;5082601;28;20027;-69
2023/07/10 04:25:45;;;;;;;7.25;4.32;;;487.30;2380.80;;;;;;5089400;28;20488;-67
2023/07/10 04:28:11;;;;;;;9.27;4.40;;;512.20;2380.80;;;;;;5089666;28;20474;-66
2023/07/10 04:30:36;;;;;;;5.45;4.05;;;512.50;2380.80;;;;;;5075719;28;20764;-67
2023/07/10 04:33:02;;;;;;;5.82;3.88;;;512.80;2380.80;;;;;;5089592;28;20028;-67
2023/07/10 04:35:28;;;;;;;9.23;4.65;;;512.80;2380.80;;;;;;5089181;28;20051;-67
2023/07/10 04:37:53;;;;;;;6.32;4.47;;;537.60;2406.40;;;;;;5089412;28;20020;-67
2023/07/10 04:40:19;;;;;;;9.38;4.90;;;538.00;2406.40;;;;;;5089162;28;20036;-68
2023/07/10 04:42:45;;;;;;;5.90;4.72;;;589.30;2380.80;;;;;;5089563;28;20024;-68
2023/07/10 04:45:11;;;;;;;7.60;5.13;;;640.50;2124.80;;;;;;5089139;28;20028;-67
2023/07/10 04:47:36;;;;;;;6.20;5.50;;;666.50;1971.20;;;;;;5088679;28;20155;-68
2023/07/10 04:50:02;;;;;;;7.43;5.38;;;692.00;1868.80;;;;;;5089079;28;20059;-68
2023/07/10 04:52:28;;;;;;;6.60;4.70;;;717.40;1817.60;;;;;;5089071;28;20026;-66
2023/07/10 04:54:53;;;;;;;6.57;4.97;;;742.90;1740.80;;;;;;5089089;28;20362;-68
2023/07/10 04:57:19;;;;;;;5.85;4.80;;;768.00;1715.20;;;;;;5089085;28;20016;-69
2023/07/10 04:59:45;;;;;;;9.25;5.50;;;768.70;1638.40;;;;;;5089331;28;20070;-69
2023/07/10 05:02:11;;;;;;;5.68;4.70;;;794.00;1612.80;;;;;;5089370;28;20017;-67
2023/07/10 05:04:37;;;;;;;7.00;5.15;;;794.50;1561.60;;;;;;5088591;28;20547;-68
2023/07/10 05:07:03;;;;;;;6.65;5.30;;;819.60;1536.00;;;;;;5089136;28;20024;-68
2023/07/10 05:09:32;;;;;;;5.75;5.20;;;820.10;1484.80;;;;;;5088373;28;20035;-68
2023/07/10 05:11:58;;;;;;;6.78;5.20;;;844.90;1510.40;;;;;;5088804;28;20042;-68
2023/07/10 05:14:24;;;;;;;7.85;5.32;;;820.10;1484.80;;;;;;5091934;28;20148;-64
2023/07/10 05:16:50;;;;;;;7.18;5.28;;;845.20;1484.80;;;;;;5092090;28;20109;-66
2023/07/10 05:19:16;;;;;;;7.28;5.05;;;870.50;1433.60;;;;;;5093044;28;20020;-67
2023/07/10 05:21:42;;;;;;;6.20;5.60;;;870.80;1408.00;;;;;;5092680;28;20024;-64
2023/07/10 05:24:08;;;;;;;6.82;5.72;;;896.00;1382.40;;;;;;5092532;28;20050;-66
2023/07/10 05:26:34;;;;;;;8.85;6.03;;;896.80;1356.80;;;;;;5092857;28;20054;-66
2023/07/10 05:29:00;;;;;;;6.05;5.53;;;922.00;1356.80;;;;;;5092972;28;20028;-65
2023/07/10 05:31:26;;;;;;;6.30;5.70;;;922.40;1305.60;;;;;;5092624;28;20028;-66
2023/07/10 05:33:52;;;;;;;7.80;6.07;;;;;;;;;;5092559;28;20044;-67
2023/07/10 05:36:18;;;;;;;8.18;5.95;;;947.30;1305.60;;;;;;5092329;28;20024;-67
2023/07/10 05:38:48;;;;;;;7.07;6.35;;;948.10;1280.00;;;;;;5092904;28;20028;-66
2023/07/10 05:41:18;;;;;;;9.35;6.35;;;973.10;1280.00;;;;;;5092631;28;20020;-65
2023/07/10 05:43:44;;;;;;;9.20;7.03;;;973.20;1254.40;;;;;;5092532;28;20027;-67
2023/07/10 05:46:11;;;;;;;9.88;7.63;;;973.30;1228.80;;;;;;5091711;28;20713;-66
2023/07/10 05:48:37;;;;;;;6.72;6.20;;;973.60;1228.80;;;;;;5077471;28;20039;-65
2023/07/10 05:51:04;;;;;;;6.88;6.28;;;973.70;1228.80;;;;;;5082675;28;20032;-66
2023/07/10 05:53:33;;;;;;;9.02;7.18;;;998.70;1228.80;;;;;;5092389;28;20145;-65
2023/07/10 05:56:00;;;;;;;7.75;7.05;;;999.00;1203.20;;;;;;5092404;28;20043;-66
2023/07/10 05:58:28;;;;;;;6.90;6.30;;;1024.10;1177.60;;;;;;5091983;28;20030;-66
2023/07/10 06:00:56;;;;;;;8.18;7.35;;;1049.70;1203.20;;;;;;5092179;28;20020;-64
2023/07/10 06:03:22;;;;;;;7.80;7.10;;;1050.00;1177.60;;;;;;5092230;28;20032;-65
2023/07/10 06:06:05;;;;;;;8.15;7.35;;;1050.30;1152.00;;;;;;5092026;28;20033;-65
2023/07/10 06:08:31;;;;;;;;;;;1075.60;1126.40;;;;;;5092656;28;20374;-66
2023/07/10 06:10:57;;;;;;;8.10;7.40;;;1075.50;1126.40;;;;;;5077996;28;19916;-67
2023/07/10 06:13:23;;;;;;;9.10;8.30;;;1075.80;1126.40;;;;;;5091978;28;20020;-67
2023/07/10 06:15:51;;;;;;;8.57;7.35;;;1101.20;1126.40;;;;;;5077648;28;20032;-65
2023/07/10 06:18:18;;;;;;;9.05;8.15;;;1101.70;1100.80;;;;;;5091707;28;20106;-66
2023/07/10 06:20:56;;;;;;;8.88;8.10;;;1126.70;1100.80;;;;;;5091763;28;20082;-66
2023/07/10 06:23:23;;;;;;;10.40;9.02;;;1126.90;1100.80;;;;;;5091668;28;20046;-66
2023/07/10 06:25:50;;;;;;;8.68;7.97;;;1152.10;1075.20;;;;;;5090634;28;20081;-66
2023/07/10 06:28:16;;;;;;;9.68;8.38;;;1152.10;1075.20;;;;;;5091533;28;20040;-65
2023/07/10 06:30:52;;;;;;;10.20;8.68;;;1152.70;1049.60;;;;;;5091475;28;20034;-67
2023/07/10 06:33:17;;;;;;;8.90;8.05;;;1152.60;1049.60;;;;;;5091416;28;20459;-65
2023/07/10 06:35:43;;;;;;;9.23;8.38;;;1178.00;1024.00;;;;;;5091738;28;20028;-65
2023/07/10 06:38:09;;;;;;;11.00;8.98;;;1178.10;1024.00;;;;;;5091151;28;20043;-65
2023/07/10 06:40:36;;;;;;;9.65;8.77;;;1178.10;1024.00;;;;;;5091582;28;20036;-65
2023/07/10 06:43:03;;;;;;;10.00;9.20;;;1178.50;998.40;;;;;;5091397;28;20012;-66
2023/07/10 06:45:28;;;;;;;9.85;9.00;;;1203.60;998.40;;;;;;5091170;28;20047;-65
2023/07/10 06:47:54;;;;;;;9.27;8.48;;;1203.70;1024.00;;;;;;5090827;28;20044;-65
2023/07/10 06:50:20;;;;;;;9.02;8.32;;;1203.70;1024.00;;;;;;5091256;28;20360;-65
2023/07/10 06:52:45;;;;;;;9.45;8.55;;;1203.90;1024.00;;;;;;5091494;28;20065;-66
2023/07/10 06:55:16;;;;;;;9.98;8.73;;;1228.80;1049.60;;;;;;5091373;28;20528;-65
2023/07/10 06:57:42;;;;;;;9.77;9.07;;;1229.30;998.40;;;;;;5091084;28;20028;-66
2023/07/10 07:00:10;;;;;;;9.48;8.68;;;1229.70;972.80;;;;;;5090789;28;20098;-65
2023/07/10 07:02:37;;;;;;;9.65;8.75;;;1254.60;998.40;;;;;;5090470;28;20020;-64
2023/07/10 07:05:07;;;;;;;9.98;9.18;;;1255.10;972.80;;;;;;5090887;28;20079;-64
2023/07/10 07:07:34;;;;;;;9.75;9.00;;;1255.30;998.40;;;;;;5090963;28;20127;-65
2023/07/10 07:10:00;;;;;;;15.90;14.50;;;1255.30;998.40;;;;;;5076927;28;20056;-65
2023/07/10 07:12:26;;;;;;;13.77;12.32;;;1255.10;998.40;;;;;;5090752;28;20047;-66
2023/07/10 07:14:52;;;;;;;12.52;11.52;;;1255.30;1024.00;;;;;;5090518;28;20067;-65
2023/07/10 07:17:18;;;;;;;11.45;10.43;;;1255.30;998.40;;;;;;5090428;28;20082;-64
2023/07/10 07:19:46;;;;;;;11.85;10.50;;;1280.90;947.20;;;;;;5090913;28;20038;-65
2023/07/10 07:22:12;;;;;;;13.35;10.82;;;1305.90;921.60;;;;;;5090929;28;20036;-65
2023/07/10 07:24:38;;;;;;;12.05;10.93;;;1305.70;921.60;;;;;;5089992;28;20107;-62
2023/07/10 07:27:04;;;;;;;19.70;17.92;;;;;;;;;;5090481;28;20056;-62
2023/07/10 07:29:30;;;;;;;12.57;11.52;;;1305.60;947.20;;;;;;5090341;28;20415;-72
2023/07/10 07:31:55;;;;;;;12.10;11.30;;;1306.30;921.60;;;;;;5090137;28;20026;-68
2023/07/10 07:34:22;;;;;;;12.48;11.48;;;1331.40;921.60;;;;;;5090534;28;20027;-75
2023/07/10 07:36:52;;;;;;;12.77;11.63;;;1306.20;921.60;;;;;;5089117;28;20024;-71
2023/07/10 07:39:20;;;;;;;11.55;10.80;;;1331.40;947.20;;;;;;5090142;28;20027;-70
2023/07/10 07:41:46;;;;;;;12.48;11.57;;;1331.20;947.20;;;;;;5090145;28;20076;-76
2023/07/10 07:44:12;;;;;;;13.98;12.68;;;1306.50;921.60;;;;;;5089985;28;20070;-73
2023/07/10 07:46:38;;;;;;;14.98;13.98;;;1331.70;921.60;;;;;;5089692;28;20044;-73
2023/07/10 07:49:05;;;;;;;14.82;13.70;;;1331.70;947.20;;;;;;5090062;28;20161;-75
2023/07/10 07:51:31;;;;;;;12.82;11.85;;;1331.40;947.20;;;;;;5090198;28;20024;-75
2023/07/10 07:54:10;;;;;;;16.73;14.13;;;1331.60;896.00;;;;;;5089839;28;20035;-74
2023/07/10 07:56:36;;;;;;;13.60;12.70;;;1356.90;921.60;;;;;;5088471;28;20024;-62
2023/07/10 07:59:02;;;;;;;13.90;12.90;;;1331.90;896.00;;;;;;5089581;28;20028;-66
2023/07/10 08:01:27;;;;;;;13.35;12.55;;;1331.60;921.60;;;;;;5088087;28;20153;-75
2023/07/10 08:03:53;;;;;;;13.18;12.20;;;1331.60;896.00;;;;;;5089357;28;20020;-61
2023/07/10 08:06:19;;;;;;;14.23;13.20;;;1331.40;896.00;;;;;;5076553;28;20044;-75
2023/07/10 08:08:46;;;;;;;13.02;11.90;;;1305.70;896.00;;;;;;5090057;28;20111;-76
2023/07/10 08:11:13;;;;;;;12.63;11.52;;;1280.70;921.60;;;;;;5090041;28;20039;-77
2023/07/10 08:13:38;;;;;;;13.10;12.20;;;1280.20;947.20;;;;;;5089505;28;20024;-73
2023/07/10 08:16:04;;;;;;;13.35;12.32;;;1254.60;998.40;;;;;;5081523;28;20050;-76
2023/07/10 08:18:30;;;;;;;11.65;10.70;;;1254.40;998.40;;;;;;5079116;28;20064;-72
2023/07/10 08:21:07;;;;;;;12.48;11.35;;;1203.60;998.40;;;;;;5079164;28;20024;-74
2023/07/10 08:23:32;;;;;;;9.82;9.05;;;1127.10;1075.20;;;;;;5075503;28;20032;-63
2023/07/10 08:25:59;;;;;;;10.45;9.35;;;1100.90;1075.20;;;;;;5067484;28;20043;-63
2023/07/10 08:28:25;;;;;;;13.05;9.60;;;1049.90;1177.60;;;;;;5067852;28;20027;-72
2023/07/10 08:30:51;;;;;;;11.95;8.18;;;1024.10;1203.20;;;;;;5067926;28;20024;-74
2023/07/10 08:33:16;;;;;;;9.75;8.77;;;998.80;1254.40;;;;;;5067824;28;20024;-72
2023/07/10 08:35:42;;;;;;;10.95;8.38;;;998.40;1254.40;;;;;;5067139;28;20047;-71
2023/07/10 08:38:08;;;;;;;9.55;8.48;;;973.30;1228.80;;;;;;5067652;28;20694;-67
2023/07/10 08:40:41;;;;;;;8.65;7.75;;;948.10;1254.40;;;;;;5067697;28;20028;-72
2023/07/10 08:43:28;;;;;;;10.77;8.52;;;948.10;1280.00;;;;;;5066978;28;20021;-60
2023/07/10 08:46:19;;;;;;;11.65;8.45;;;947.60;1331.20;;;;;;5065547;28;20075;-74
2023/07/10 08:48:48;;;;;;;7.75;6.95;;;947.30;1305.60;;;;;;5067012;28;20106;-69
2023/07/10 08:51:41;;;;;;;9.73;8.73;;;947.20;1305.60;;;;;;5067309;28;20088;-73
2023/07/10 08:54:11;;;;;;;9.85;8.95;;;947.30;1331.20;;;;;;5067424;28;20036;-76
2023/07/10 08:56:48;;;;;;;7.88;7.18;;;947.40;1280.00;;;;;;5067221;28;20032;-76
2023/07/10 08:59:31;;;;;;;10.57;8.20;;;922.30;1280.00;;;;;;5067617;28;20060;-66
2023/07/10 09:01:58;;;;;;;8.82;7.82;;;922.00;1356.80;;;;;;5078260;28;20513;-60
2023/07/10 09:04:25;;;;;;;9.45;8.48;;;921.60;1356.80;;;;;;5069449;28;20032;-59
2023/07/10 09:07:01;;;;;;;9.43;8.10;;;896.90;1356.80;;;;;;5069261;28;20021;-68
2023/07/10 09:09:47;;;;;;;9.43;7.95;;;921.70;1382.40;;;;;;5073979;28;20102;-77
2023/07/10 09:12:25;;;;;;;9.27;7.47;;;921.60;1356.80;;;;;;5087271;28;20024;-61
2023/07/10 09:15:05;;;;;;;9.95;7.85;;;896.80;1408.00;;;;;;5087338;28;20024;-79
2023/07/10 09:17:44;;;;;;;8.57;7.43;;;896.80;1382.40;;;;;;5087129;28;20081;-74
2023/07/10 09:20:11;;;;;;;7.95;7.15;;;896.90;1356.80;;;;;;5087792;28;20040;-72
2023/07/10 09:22:42;;;;;;;9.38;7.75;;;896.50;1382.40;;;;;;5087301;28;20024;-62
2023/07/10 09:25:12;;;;;;;8.27;7.50;;;896.70;1356.80;;;;;;5087208;28;20394;-67
2023/07/10 09:27:41;;;;;;;11.13;7.97;;;896.30;1356.80;;;;;;5087069;28;20016;-71
2023/07/10 09:30:26;;;;;;;8.75;7.28;;;896.30;1382.40;;;;;;5086832;28;20031;-63
2023/07/10 09:33:03;;;;;;;14.38;7.40;;;896.30;1382.40;;;;;;5087183;28;20032;-61
2023/07/10 09:35:29;;;;;;;9.07;7.38;;;896.50;1331.20;;;;;;5086732;28;20024;-61
2023/07/10 09:37:55;;;;;;;9.27;8.07;;;896.40;1382.40;;;;;;5086693;28;20374;-60
2023/07/10 09:40:40;;;;;;;7.57;6.72;;;896.50;1433.60;;;;;;5087082;28;20031;-60
2023/07/10 09:43:13;;;;;;;12.75;7.05;;;896.40;1331.20;;;;;;5086603;28;20035;-61
2023/07/10 09:45:43;;;;;;;11.73;7.10;;;896.20;1305.60;;;;;;5086949;28;20423;-75
2023/07/10 09:48:20;;;;;;;9.95;7.25;;;896.10;1356.80;;;;;;5086839;28;20669;-64
2023/07/10 09:50:49;;;;;;;8.13;7.30;;;896.30;1356.80;;;;;;5086976;28;20035;-70
2023/07/10 09:53:31;;;;;;;8.48;6.93;;;896.10;1305.60;;;;;;5087027;28;20052;-69
2023/07/10 09:55:57;;;;;;;11.15;6.97;;;896.00;1356.80;;;;;;5086637;28;20020;-66
2023/07/10 09:58:23;;;;;;;8.05;6.70;;;871.30;1356.80;;;;;;5087050;28;20157;-62
2023/07/10 10:00:49;;;;;;;12.70;8.38;;;896.10;1305.60;;;;;;5088271;28;20451;-61
2023/07/10 10:03:26;;;;;;;8.60;7.47;;;870.90;1305.60;;;;;;5090618;28;20403;-66
2023/07/10 10:05:55;;;;;;;7.93;6.50;;;870.90;1382.40;;;;;;5090283;28;20040;-64
2023/07/10 10:08:25;;;;;;;8.45;6.43;;;871.10;1331.20;;;;;;5083943;28;20032;-60
2023/07/10 10:11:05;;;;;;;13.40;6.75;;;871.10;1356.80;;;;;;5070020;28;20024;-64
2023/07/10 10:13:37;;;;;;;7.30;6.25;;;871.30;1356.80;;;;;;5069716;28;20064;-65
2023/07/10 10:16:24;;;;;;;8.77;6.75;;;896.00;1254.40;;;;;;5070349;28;20497;-68
2023/07/10 10:19:01;;;;;;;13.05;6.95;;;871.10;1254.40;;;;;;5079853;28;20036;-61
2023/07/10 10:21:30;;;;;;;10.93;6.97;;;871.30;1382.40;;;;;;5089617;28;20028;-62
2023/07/10 10:24:05;;;;;;;11.18;7.30;;;871.10;1331.20;;;;;;5089956;28;20141;-67
2023/07/10 10:26:53;;;;;;;7.35;6.55;;;871.30;1382.40;;;;;;5085661;28;20032;-64
2023/07/10 10:29:27;;;;;;;9.07;6.05;;;871.30;1382.40;;;;;;5078236;28;20106;-71
2023/07/10 10:32:12;;;;;;;8.60;6.72;;;871.10;1356.80;;;;;;5077574;28;20107;-74
2023/07/10 10:34:47;;;;;;;7.53;6.82;;;871.10;1356.80;;;;;;5090556;28;20027;-75
2023/07/10 10:37:39;;;;;;;7.30;5.60;;;871.10;1382.40;;;;;;5080403;28;20093;-68
2023/07/10 10:40:23;;;;;;;8.27;6.78;;;871.30;1408.00;;;;;;5091369;28;20066;-74
2023/07/10 10:42:56;;;;;;;7.63;6.80;;;871.00;1382.40;;;;;;5090812;28;20035;-72
2023/07/10 10:45:31;;;;;;;8.43;6.93;;;871.10;1356.80;;;;;;5091570;28;20032;-74
2023/07/10 10:48:04;;;;;;;8.38;6.22;;;871.10;1382.40;;;;;;5090792;28;20119;-68
2023/07/10 10:50:38;;;;;;;8.25;6.85;;;870.90;1331.20;;;;;;5090970;28;20604;-76
2023/07/10 10:53:23;;;;;;;7.35;6.65;;;870.80;1331.20;;;;;;5091066;28;20016;-74
2023/07/10 10:56:00;;;;;;;9.13;8.23;;;870.40;1331.20;;;;;;5090902;28;20028;-74
2023/07/10 10:58:35;;;;;;;12.15;7.35;;;870.70;1356.80;;;;;;5090910;28;20042;-70
2023/07/10 11:01:19;;;;;;;6.82;6.13;;;870.70;1331.20;;;;;;5091127;28;20347;-61
2023/07/10 11:03:50;;;;;;;6.82;6.13;;;870.70;1331.20;;;;;;5091193;28;20024;-61
2023/07/10 11:06:44;;;;;;;7.65;6.53;;;870.70;1331.20;;;;;;5090707;28;20039;-61
2023/07/10 11:09:41;;;;;;;8.75;6.68;;;870.70;1280.00;;;;;;5090473;28;20032;-63
2023/07/10 11:12:16;;;;;;;6.63;6.03;;;870.70;1331.20;;;;;;5089022;28;20076;-61
2023/07/10 11:14:44;;;;;;;7.40;6.68;;;870.80;1331.20;;;;;;5091129;28;20048;-60
2023/07/10 11:17:13;;;;;;;8.98;6.35;;;870.80;1254.40;;;;;;5090274;28;20110;-73
2023/07/10 11:19:41;;;;;;;8.25;6.65;;;870.80;1305.60;;;;;;5090429;28;20028;-61
2023/07/10 11:22:35;;;;;;;6.93;5.88;;;870.80;1305.60;;;;;;5090298;28;20081;-61
2023/07/10 11:25:02;;;;;;;9.10;6.00;;;870.90;1305.60;;;;;;5090157;28;20040;-60
2023/07/10 11:27:32;;;;;;;7.20;6.50;;;870.90;1331.20;;;;;;5090475;28;20073;-59
2023/07/10 11:30:11;;;;;;;10.48;7.13;;;870.90;1408.00;;;;;;5090127;28;20356;-68
2023/07/10 11:33:03;;;;;;;7.43;6.45;;;870.90;1356.80;;;;;;5090258;28;20024;-74
2023/07/10 11:35:30;;;;;;;7.57;6.88;;;870.70;1331.20;;;;;;5080446;28;20024;-72
2023/07/10 11:38:02;;;;;;;8.38;6.07;;;845.70;1331.20;;;;;;5090268;28;20028;-65
2023/07/10 11:40:27;;;;;;;9.68;6.10;;;845.60;1382.40;;;;;;5090332;28;20504;-61
2023/07/10 11:43:25;;;;;;;9.23;6.82;;;845.60;1459.20;;;;;;5089992;28;20095;-62
2023/07/10 11:45:53;;;;;;;6.85;6.18;;;845.40;1408.00;;;;;;5089896;28;20032;-64
2023/07/10 11:49:02;;;;;;;9.43;7.03;;;845.30;1408.00;;;;;;5082125;28;20040;-70
2023/07/10 11:51:33;;;;;;;7.07;6.38;;;845.20;1459.20;;;;;;5048072;28;20052;-59
2023/07/10 11:54:04;;;;;;;10.48;6.70;;;845.20;1433.60;;;;;;5079532;28;20017;-71
2023/07/10 11:56:31;;;;;;;7.03;6.40;;;845.10;1356.80;;;;;;5075905;28;20110;-65
2023/07/10 11:59:00;;;;;;;10.68;6.97;;;820.10;1280.00;;;;;;5078006;28;20031;-69
2023/07/10 12:01:30;;;;;;;6.90;6.30;;;820.10;1408.00;;;;;;5067811;28;20131;-63
2023/07/10 12:03:56;;;;;;;8.15;7.18;;;820.10;1305.60;;;;;;5082512;28;20024;-75
2023/07/10 12:06:24;;;;;;;15.52;7.10;;;844.90;1408.00;;;;;;5089631;28;20093;-73
2023/07/10 12:08:53;;;;;;;10.13;6.10;;;844.90;1382.40;;;;;;5073820;28;20016;-70
2023/07/10 12:11:30;;;;;;;7.75;6.20;;;820.10;1280.00;;;;;;5069206;28;20520;-72
2023/07/10 12:14:09;;;;;;;15.30;7.68;;;820.10;1280.00;;;;;;5088258;28;20024;-72
2023/07/10 12:17:00;;;;;;;10.13;6.18;;;820.10;1305.60;;;;;;5089031;28;20028;-76
2023/07/10 12:19:32;;;;;;;9.95;6.80;;;820.10;1356.80;;;;;;5079661;28;20056;-73
2023/07/10 12:22:00;;;;;;;9.80;6.80;;;820.10;1408.00;;;;;;5089482;28;20016;-61
2023/07/10 12:24:25;;;;;;;8.50;5.93;;;820.10;1356.80;;;;;;5080103;28;20052;-60
2023/07/10 12:26:56;;;;;;;9.00;6.05;;;844.80;1356.80;;;;;;5069176;28;20123;-63
2023/07/10 12:29:22;;;;;;;7.60;6.50;;;844.90;1408.00;;;;;;5069331;28;20089;-59